Time;durP1;ratioP1;P1;durP2;ratioP2;P2;SDS_P1;SDS_P2;PMS_P1;PMS_P2;Temp;Humidity;BMP_temperature;BMP_pressure;BME280_temperature;BME280_humidity;BME280_pressure;Samples;Min_cycle;Max_cycle;Signal;HPM_P1;HPM_P2
2022/12/29 00:02:12;;;;;;;1999.90;999.90;;;9.40;99.90;;;;;;5007265;28;20968;-68
2022/12/29 00:04:39;;;;;;;1999.90;999.90;;;9.50;99.90;;;;;;5008239;28;20482;-68
2022/12/29 00:07:06;;;;;;;1999.90;999.90;;;9.50;99.90;;;;;;5007758;28;20470;-68
2022/12/29 00:09:34;;;;;;;1999.90;999.90;;;9.60;99.90;;;;;;5013960;28;20987;-69
2022/12/29 00:12:01;;;;;;;1999.90;999.90;;;9.60;99.90;;;;;;5020027;28;20453;-67
2022/12/29 00:17:14;;;;;;;1999.90;999.90;;;9.60;99.90;;;;;;5026983;28;20550;-69
2022/12/29 00:36:29;;;;;;;1999.90;999.90;;;9.70;99.90;;;;;;5027467;28;20478;-69
2022/12/29 00:44:27;;;;;;;1999.90;999.90;;;9.70;99.90;;;;;;5026718;28;20468;-70
2022/12/29 00:46:55;;;;;;;1999.90;999.90;;;9.60;99.90;;;;;;5027392;28;20453;-69
2022/12/29 00:49:30;;;;;;;1999.90;999.90;;;9.60;99.90;;;;;;5009085;28;20473;-69
2022/12/29 00:51:59;;;;;;;1999.90;999.90;;;9.60;99.90;;;;;;5010067;28;20830;-69
2022/12/29 00:54:26;;;;;;;1999.90;999.90;;;9.70;99.90;;;;;;5006509;28;20810;-68
2022/12/29 00:56:53;;;;;;;1999.90;999.90;;;9.60;99.90;;;;;;5007571;28;20458;-68
2022/12/29 00:59:20;;;;;;;1999.90;999.90;;;9.70;99.90;;;;;;5006183;28;20537;-68
2022/12/29 01:01:47;;;;;;;1999.90;999.90;;;9.70;99.90;;;;;;5007072;28;21007;-68
2022/12/29 01:04:16;;;;;;;1999.90;999.90;;;9.70;99.90;;;;;;5006648;28;20473;-68
2022/12/29 01:06:42;;;;;;;1999.90;999.90;;;9.60;99.90;;;;;;5006942;28;20928;-68
2022/12/29 01:11:54;;;;;;;1999.90;999.90;;;9.60;99.90;;;;;;5018654;28;21009;-68
2022/12/29 01:14:22;;;;;;;1999.90;999.90;;;9.50;99.90;;;;;;5025921;28;20449;-68
2022/12/29 01:16:49;;;;;;;1999.90;999.90;;;9.50;99.90;;;;;;5026953;28;20469;-68
2022/12/29 01:19:18;;;;;;;1999.90;999.90;;;9.50;99.90;;;;;;5025593;28;20453;-68
2022/12/29 01:21:45;;;;;;;1999.90;999.90;;;9.50;99.90;;;;;;5026697;28;20449;-68
2022/12/29 01:24:12;;;;;;;1999.90;999.90;;;9.50;99.90;;;;;;5025550;28;20483;-68
2022/12/29 01:26:39;;;;;;;1999.90;999.90;;;9.60;99.90;;;;;;5008943;28;20469;-68
2022/12/29 01:29:06;;;;;;;1999.90;999.90;;;9.60;99.90;;;;;;4999136;28;20464;-68
2022/12/29 01:31:33;;;;;;;1999.90;999.90;;;9.70;99.90;;;;;;5006693;28;20442;-68
2022/12/29 01:34:00;;;;;;;1999.90;999.90;;;9.70;99.90;;;;;;5005925;28;20450;-68
2022/12/29 01:36:28;;;;;;;1999.90;999.90;;;9.80;99.90;;;;;;5006420;28;20469;-68
2022/12/29 01:38:54;;;;;;;1999.90;999.90;;;9.80;99.90;;;;;;5005421;28;20450;-68
2022/12/29 01:41:21;;;;;;;1999.90;999.90;;;9.80;99.90;;;;;;5014260;28;20446;-68
2022/12/29 01:43:50;;;;;;;1999.90;999.90;;;9.80;99.90;;;;;;5006701;28;20836;-68
2022/12/29 01:46:24;;;;;;;1999.90;999.90;;;9.80;99.90;;;;;;5006615;28;20489;-68
2022/12/29 01:48:54;;;;;;;1999.90;999.90;;;9.90;99.90;;;;;;5006134;28;20478;-67
2022/12/29 01:51:24;;;;;;;1999.90;999.90;;;9.90;99.90;;;;;;5006498;28;20496;-68
2022/12/29 01:53:53;;;;;;;1999.90;999.90;;;9.90;99.90;;;;;;5006200;28;20469;-68
2022/12/29 01:56:21;;;;;;;1999.90;999.90;;;9.90;99.90;;;;;;5006120;28;20457;-68
2022/12/29 01:58:55;;;;;;;1999.90;999.90;;;9.90;99.90;;;;;;5002287;28;20470;-68
2022/12/29 02:01:22;;;;;;;1999.90;999.90;;;10.00;99.90;;;;;;5005272;28;20454;-68
2022/12/29 02:03:50;;;;;;;1999.90;999.90;;;10.00;99.90;;;;;;5006160;28;20453;-68
2022/12/29 02:06:22;;;;;;;1999.90;999.90;;;10.00;99.90;;;;;;5005531;28;20493;-68
2022/12/29 02:08:54;;;;;;;1999.90;999.90;;;10.00;99.90;;;;;;5005433;28;20839;-68
2022/12/29 02:11:21;;;;;;;1999.90;999.90;;;10.00;99.90;;;;;;5013996;28;20454;-69
2022/12/29 02:13:48;;;;;;;1999.90;999.90;;;10.00;99.90;;;;;;5003848;28;20466;-69
2022/12/29 02:16:35;;;;;;;1999.90;999.90;;;10.10;99.90;;;;;;5003354;28;20462;-67
2022/12/29 02:19:35;;;;;;;1999.90;999.90;;;10.10;99.90;;;;;;5011397;28;20464;-69
2022/12/29 02:22:11;;;;;;;1999.90;999.90;;;10.20;99.90;;;;;;5006482;28;20465;-69
2022/12/29 02:25:04;;;;;;;1999.90;999.90;;;10.10;99.90;;;;;;5005995;28;20492;-69
2022/12/29 02:27:51;;;;;;;1999.90;999.90;;;10.20;99.90;;;;;;5006650;28;20477;-69
2022/12/29 02:30:33;;;;;;;1999.90;999.90;;;10.30;99.90;;;;;;5005259;28;20446;-69
2022/12/29 02:33:14;;;;;;;1999.90;999.90;;;10.30;99.90;;;;;;5006936;28;20453;-69
2022/12/29 02:35:50;;;;;;;1999.90;999.90;;;10.30;99.90;;;;;;5006292;28;20457;-69
2022/12/29 02:38:26;;;;;;;1999.90;999.90;;;10.30;99.90;;;;;;5005166;28;20449;-69
2022/12/29 02:40:59;;;;;;;1999.90;999.90;;;10.30;99.90;;;;;;5015798;28;20442;-69
2022/12/29 02:43:30;;;;;;;1999.90;999.90;;;10.40;99.90;;;;;;5017352;28;20474;-69
2022/12/29 02:46:05;;;;;;;1999.90;999.90;;;10.40;99.90;;;;;;5006858;28;21247;-70
2022/12/29 02:48:38;;;;;;;1999.90;999.90;;;10.40;99.90;;;;;;5011076;28;21008;-69
2022/12/29 02:51:09;;;;;;;1999.90;999.90;;;10.30;99.90;;;;;;5028846;28;20955;-70
2022/12/29 02:56:21;;;;;;;1999.90;999.90;;;10.30;99.90;;;;;;5026761;28;20658;-70
2022/12/29 02:58:48;;;;;;;1999.90;999.90;;;10.30;99.90;;;;;;5012957;28;20450;-69
2022/12/29 03:01:28;;;;;;;1999.90;999.90;;;10.30;99.90;;;;;;5015396;28;20452;-70
2022/12/29 03:04:24;;;;;;;1999.90;999.90;;;10.30;99.90;;;;;;5029974;28;20453;-71
2022/12/29 03:07:00;;;;;;;1999.90;999.90;;;10.30;99.90;;;;;;5025361;28;20491;-71
2022/12/29 03:09:36;;;;;;;1999.90;999.90;;;10.30;99.90;;;;;;5022914;28;20449;-71
2022/12/29 03:12:11;;;;;;;1999.90;999.90;;;10.30;99.90;;;;;;5024457;28;20498;-70
2022/12/29 03:17:48;;;;;;;1999.90;999.90;;;10.20;99.90;;;;;;4991049;28;20426;-71
2022/12/29 03:20:21;;;;;;;1999.90;999.90;;;10.30;99.90;;;;;;5017320;28;20456;-71
2022/12/29 03:22:50;;;;;;;1999.90;999.90;;;10.30;99.90;;;;;;5022958;28;20459;-71
2022/12/29 03:25:23;;;;;;;1999.90;999.90;;;10.40;99.90;;;;;;5010317;28;20488;-71
2022/12/29 03:27:53;;;;;;;1999.90;999.90;;;10.40;99.90;;;;;;5030352;28;20822;-71
2022/12/29 03:30:20;;;;;;;1999.90;999.90;;;10.40;99.90;;;;;;5024236;28;21032;-71
2022/12/29 03:32:52;;;;;;;1999.90;999.90;;;10.40;99.90;;;;;;5027070;28;20468;-68
2022/12/29 03:35:22;;;;;;;1999.90;999.90;;;10.50;99.90;;;;;;5028196;28;20453;-71
2022/12/29 03:37:53;;;;;;;1999.90;999.90;;;10.50;99.90;;;;;;5025813;28;20446;-71
2022/12/29 03:40:23;;;;;;;1999.90;999.90;;;10.50;99.90;;;;;;5029484;28;20453;-70
2022/12/29 03:42:51;;;;;;;1999.90;999.90;;;10.60;99.90;;;;;;5029402;28;20810;-71
2022/12/29 03:45:18;;;;;;;1999.90;999.90;;;10.60;99.90;;;;;;5027861;28;20499;-70
2022/12/29 03:47:44;;;;;;;1999.90;999.90;;;10.60;99.90;;;;;;5029610;28;20456;-70
2022/12/29 03:50:14;;;;;;;1999.90;999.90;;;10.60;99.90;;;;;;5012228;28;20971;-70
2022/12/29 03:52:40;;;;;;;1999.90;999.90;;;10.70;99.90;;;;;;5022172;28;20989;-71
2022/12/29 03:55:08;;;;;;;1999.90;999.90;;;10.70;99.90;;;;;;5029093;28;20951;-71
2022/12/29 03:57:35;;;;;;;1999.90;999.90;;;10.70;99.90;;;;;;5025601;28;20450;-71
2022/12/29 04:00:02;;;;;;;1999.90;999.90;;;10.70;99.90;;;;;;5012283;28;20464;-70
2022/12/29 04:02:29;;;;;;;1999.90;999.90;;;10.70;99.90;;;;;;5009357;28;20870;-71
2022/12/29 04:04:55;;;;;;;1999.90;999.90;;;10.70;99.90;;;;;;5018587;28;20849;-71
2022/12/29 04:07:24;;;;;;;1999.90;999.90;;;10.60;99.90;;;;;;5028983;28;20479;-70
2022/12/29 04:09:50;;;;;;;1999.90;999.90;;;10.60;99.90;;;;;;5012962;28;20458;-71
2022/12/29 04:12:17;;;;;;;1999.90;999.90;;;10.50;99.90;;;;;;5008838;28;20940;-70
2022/12/29 04:14:44;;;;;;;1999.90;999.90;;;10.30;99.90;;;;;;5028238;28;20828;-71
2022/12/29 04:17:11;;;;;;;1999.90;999.90;;;10.10;99.90;;;;;;5017302;28;20495;-70
2022/12/29 04:19:37;;;;;;;1999.90;999.90;;;10.00;99.90;;;;;;5028060;28;20942;-71
2022/12/29 04:22:04;;;;;;;1999.90;999.90;;;10.00;99.90;;;;;;5028936;28;20452;-71
2022/12/29 04:24:32;;;;;;;1999.90;999.90;;;10.10;99.90;;;;;;5025352;28;20458;-70
2022/12/29 04:26:59;;;;;;;1999.90;999.90;;;10.10;99.90;;;;;;5011256;28;20490;-71
2022/12/29 04:29:26;;;;;;;1999.90;999.90;;;10.30;99.90;;;;;;5021223;28;20448;-70
2022/12/29 04:31:52;;;;;;;1999.90;999.90;;;10.40;99.90;;;;;;5029110;28;20452;-70
2022/12/29 04:34:19;;;;;;;1999.90;999.90;;;10.50;99.90;;;;;;5028405;28;20456;-70
2022/12/29 04:36:46;;;;;;;1999.90;999.90;;;10.60;99.90;;;;;;5028811;28;20468;-70
2022/12/29 04:39:13;;;;;;;1999.90;999.90;;;10.70;99.90;;;;;;5027770;28;20674;-71
2022/12/29 04:41:41;;;;;;;1999.90;999.90;;;10.70;99.90;;;;;;5028541;28;20460;-70
2022/12/29 04:44:07;;;;;;;1999.90;999.90;;;10.80;99.90;;;;;;5026432;28;20452;-71
2022/12/29 04:46:34;;;;;;;1999.90;999.90;;;10.80;99.90;;;;;;5015577;28;21007;-71
2022/12/29 04:49:07;;;;;;;1999.90;999.90;;;10.80;99.90;;;;;;5025738;28;21370;-71
2022/12/29 04:51:34;;;;;;;1999.90;999.90;;;10.80;99.90;;;;;;5017885;28;20854;-71
2022/12/29 04:54:01;;;;;;;1999.90;999.90;;;10.90;99.90;;;;;;5027878;28;20950;-70
2022/12/29 04:56:27;;;;;;;1999.90;999.90;;;10.80;99.90;;;;;;5028116;28;20468;-70
2022/12/29 04:58:55;;;;;;;1999.90;999.90;;;10.80;99.90;;;;;;5027631;28;20968;-70
2022/12/29 05:01:22;;;;;;;1999.90;999.90;;;10.60;99.90;;;;;;5028145;28;21153;-70
2022/12/29 05:03:51;;;;;;;1999.90;999.90;;;10.70;99.90;;;;;;5026121;28;20463;-70
2022/12/29 05:06:17;;;;;;;1999.90;999.90;;;10.70;99.90;;;;;;5022756;28;20485;-70
2022/12/29 05:08:44;;;;;;;1999.90;999.90;;;10.70;99.90;;;;;;5006769;28;20453;-70
2022/12/29 05:11:11;;;;;;;1999.90;999.90;;;10.70;99.90;;;;;;5008177;28;20469;-70
2022/12/29 05:13:38;;;;;;;1999.90;999.90;;;10.80;99.90;;;;;;5009081;28;20445;-71
2022/12/29 05:16:07;;;;;;;1999.90;999.90;;;10.90;99.90;;;;;;5027691;28;20841;-71
2022/12/29 05:18:33;;;;;;;1999.90;999.90;;;11.00;99.90;;;;;;5008704;28;20457;-70
2022/12/29 05:21:00;;;;;;;1999.90;999.90;;;11.00;99.90;;;;;;5010177;28;20453;-70
2022/12/29 05:23:27;;;;;;;1999.90;999.90;;;11.10;99.90;;;;;;5021405;28;20448;-71
2022/12/29 05:25:53;;;;;;;1999.90;999.90;;;11.10;99.90;;;;;;5027565;28;20473;-69
2022/12/29 05:28:20;;;;;;;1999.90;999.90;;;11.10;99.90;;;;;;5021742;28;20453;-70
2022/12/29 05:30:49;;;;;;;1999.90;999.90;;;11.10;99.90;;;;;;5025786;28;20460;-71
2022/12/29 05:33:17;;;;;;;1999.90;999.90;;;11.20;99.90;;;;;;5017547;28;20454;-70
2022/12/29 05:35:44;;;;;;;1999.90;999.90;;;11.30;99.90;;;;;;5013128;28;20475;-70
2022/12/29 05:38:11;;;;;;;1999.90;999.90;;;11.30;99.90;;;;;;5027076;28;20449;-69
2022/12/29 05:40:38;;;;;;;1999.90;999.90;;;11.30;99.90;;;;;;5022180;28;20948;-69
2022/12/29 05:43:04;;;;;;;1999.90;999.90;;;11.30;99.90;;;;;;5016399;28;20570;-69
2022/12/29 05:45:31;;;;;;;1999.90;999.90;;;11.40;99.90;;;;;;5027255;28;20481;-70
2022/12/29 05:47:58;;;;;;;1999.90;999.90;;;11.40;99.90;;;;;;5027687;28;20449;-71
2022/12/29 05:50:26;;;;;;;1999.90;999.90;;;11.40;99.90;;;;;;5009678;28;20454;-70
2022/12/29 05:52:53;;;;;;;1999.90;999.90;;;11.40;99.90;;;;;;5007563;28;20454;-69
2022/12/29 05:55:20;;;;;;;1999.90;999.90;;;11.30;99.90;;;;;;5014793;28;20974;-70
2022/12/29 05:57:46;;;;;;;1999.90;999.90;;;11.30;99.90;;;;;;5007909;28;20483;-70
2022/12/29 06:00:15;;;;;;;1999.90;999.90;;;11.40;99.90;;;;;;5016178;28;20450;-70
2022/12/29 06:02:41;;;;;;;1999.90;999.90;;;11.40;99.90;;;;;;5013038;28;20453;-69
2022/12/29 06:05:09;;;;;;;1999.90;999.90;;;11.50;99.90;;;;;;5015399;28;20449;-70
2022/12/29 06:07:37;;;;;;;1999.90;999.90;;;11.50;99.90;;;;;;5009374;28;20488;-70
2022/12/29 06:10:05;;;;;;;1999.90;999.90;;;11.50;99.90;;;;;;5009921;28;20461;-71
2022/12/29 06:12:31;;;;;;;1999.90;999.90;;;11.50;99.90;;;;;;5013182;28;20449;-70
2022/12/29 06:14:58;;;;;;;1999.90;999.90;;;11.50;99.90;;;;;;5027735;28;20433;-71
2022/12/29 06:17:25;;;;;;;1999.90;999.90;;;11.40;99.90;;;;;;5027468;28;20452;-71
2022/12/29 06:19:52;;;;;;;1999.90;999.90;;;11.50;99.90;;;;;;5029358;28;20448;-70
2022/12/29 06:22:19;;;;;;;1999.90;999.90;;;11.50;99.90;;;;;;5028801;28;20453;-71
2022/12/29 06:24:47;;;;;;;1999.90;999.90;;;11.50;99.90;;;;;;5011537;28;20568;-71
2022/12/29 06:27:14;;;;;;;1999.90;999.90;;;11.40;99.90;;;;;;5011608;28;20481;-71
2022/12/29 06:29:40;;;;;;;1999.90;999.90;;;11.30;99.90;;;;;;5028104;28;20847;-71
2022/12/29 06:32:08;;;;;;;1999.90;999.90;;;11.30;99.90;;;;;;5019615;28;20535;-71
2022/12/29 06:34:34;;;;;;;1999.90;999.90;;;11.30;99.90;;;;;;5011035;28;20442;-70
2022/12/29 06:37:01;;;;;;;1999.90;999.90;;;11.30;99.90;;;;;;5011049;28;20933;-70
2022/12/29 06:39:28;;;;;;;1999.90;999.90;;;11.40;99.90;;;;;;5022644;28;20460;-71
2022/12/29 06:41:56;;;;;;;1999.90;999.90;;;11.50;99.90;;;;;;5015061;28;20454;-70
2022/12/29 06:44:24;;;;;;;1999.90;999.90;;;11.50;99.90;;;;;;5024504;28;20449;-70
2022/12/29 06:46:51;;;;;;;1999.90;999.90;;;11.50;99.90;;;;;;5010724;28;20486;-71
2022/12/29 06:49:18;;;;;;;1999.90;999.90;;;11.50;99.90;;;;;;5010316;28;20468;-70
2022/12/29 06:51:45;;;;;;;1999.90;999.90;;;11.50;99.90;;;;;;5010739;28;20453;-70
2022/12/29 06:54:12;;;;;;;1999.90;999.90;;;11.50;99.90;;;;;;5010698;28;20464;-70
2022/12/29 06:56:38;;;;;;;1999.90;999.90;;;11.50;99.90;;;;;;5029715;28;20461;-71
2022/12/29 06:59:06;;;;;;;1999.90;999.90;;;11.40;99.90;;;;;;5029711;28;20455;-70
2022/12/29 07:01:35;;;;;;;1999.90;999.90;;;11.40;99.90;;;;;;5022300;28;20446;-71
2022/12/29 07:04:02;;;;;;;1999.90;999.90;;;11.30;99.90;;;;;;5015633;28;20472;-70
2022/12/29 07:06:29;;;;;;;1999.90;999.90;;;11.30;99.90;;;;;;5017597;28;20984;-71
2022/12/29 07:08:57;;;;;;;1999.90;999.90;;;11.30;99.90;;;;;;5009645;28;20457;-71
2022/12/29 07:11:24;;;;;;;1999.90;999.90;;;11.20;99.90;;;;;;5010530;28;20457;-71
2022/12/29 07:13:51;;;;;;;1999.90;999.90;;;11.00;99.90;;;;;;5014810;28;20475;-71
2022/12/29 07:16:19;;;;;;;1999.90;999.90;;;10.90;99.90;;;;;;5030148;28;20456;-70
2022/12/29 07:18:46;;;;;;;1999.90;999.90;;;10.80;99.90;;;;;;5019065;28;20508;-70
2022/12/29 07:21:13;;;;;;;1999.90;999.90;;;10.70;99.90;;;;;;5010427;28;20808;-70
2022/12/29 07:23:40;;;;;;;1999.90;999.90;;;10.70;99.90;;;;;;5027637;28;20444;-71
2022/12/29 07:26:09;;;;;;;1999.90;999.90;;;10.70;99.90;;;;;;5001928;28;20496;-71
2022/12/29 07:28:37;;;;;;;1999.90;999.90;;;10.60;99.90;;;;;;5014453;28;20446;-71
2022/12/29 07:31:04;;;;;;;1999.90;999.90;;;10.60;99.90;;;;;;5018582;28;20453;-71
2022/12/29 07:33:33;;;;;;;1999.90;999.90;;;10.70;99.90;;;;;;5029387;28;20448;-71
2022/12/29 07:36:00;;;;;;;1999.90;999.90;;;10.60;99.90;;;;;;5018124;28;20472;-71
2022/12/29 07:38:27;;;;;;;1999.90;999.90;;;10.60;99.90;;;;;;5009252;28;20434;-71
2022/12/29 07:40:57;;;;;;;1999.90;999.90;;;10.60;99.90;;;;;;5010645;28;20928;-70
2022/12/29 07:43:24;;;;;;;1999.90;999.90;;;10.50;99.90;;;;;;5029162;28;20433;-71
2022/12/29 07:45:51;;;;;;;1999.90;999.90;;;10.40;99.90;;;;;;5029425;28;21372;-70
2022/12/29 07:48:18;;;;;;;1999.90;999.90;;;10.40;99.90;;;;;;5028825;28;20440;-71
2022/12/29 07:50:46;;;;;;;1999.90;999.90;;;10.40;99.90;;;;;;5010066;28;20456;-71
2022/12/29 07:53:13;;;;;;;1999.90;999.90;;;10.40;99.90;;;;;;5027150;28;20441;-71
2022/12/29 07:55:40;;;;;;;1999.90;999.90;;;10.40;99.90;;;;;;5022511;28;20472;-71
2022/12/29 07:58:06;;;;;;;1999.90;999.90;;;10.40;99.90;;;;;;5011520;28;20441;-70
2022/12/29 08:00:33;;;;;;;1999.90;999.90;;;10.40;99.90;;;;;;5020104;28;20448;-71
2022/12/29 08:03:00;;;;;;;1999.90;999.90;;;10.40;99.90;;;;;;5009569;28;20442;-72
2022/12/29 08:05:27;;;;;;;1999.90;999.90;;;10.40;99.90;;;;;;5024934;28;20473;-71
2022/12/29 08:07:55;;;;;;;1999.90;999.90;;;10.40;99.90;;;;;;5028771;28;20477;-71
2022/12/29 08:10:22;;;;;;;1999.90;999.90;;;10.50;99.90;;;;;;5020211;28;20454;-73
2022/12/29 08:12:50;;;;;;;1999.90;999.90;;;10.60;99.90;;;;;;5008872;28;20438;-72
2022/12/29 08:15:16;;;;;;;1999.90;999.90;;;10.60;99.90;;;;;;5009528;28;20442;-71
2022/12/29 08:17:43;;;;;;;1999.90;999.90;;;10.80;99.90;;;;;;5009539;28;20434;-71
2022/12/29 08:20:11;;;;;;;1999.90;999.90;;;10.80;99.90;;;;;;5008509;28;20936;-72
2022/12/29 08:22:37;;;;;;;1999.90;999.90;;;10.90;99.90;;;;;;5017625;28;20906;-71
2022/12/29 08:25:06;;;;;;;1999.90;999.90;;;11.10;99.90;;;;;;5028870;28;20441;-70
2022/12/29 08:27:33;;;;;;;1999.90;999.90;;;11.20;99.90;;;;;;5028711;28;20476;-70
2022/12/29 08:30:00;;;;;;;1999.90;999.90;;;11.20;99.90;;;;;;5011371;28;20450;-70
2022/12/29 08:32:28;;;;;;;1999.90;999.90;;;11.30;99.90;;;;;;5010882;28;20500;-69
2022/12/29 08:34:55;;;;;;;1999.90;999.90;;;11.40;99.90;;;;;;5019836;28;20814;-70
2022/12/29 08:37:22;;;;;;;1999.90;999.90;;;11.40;99.90;;;;;;5008578;28;20469;-68
2022/12/29 08:39:49;;;;;;;1999.90;999.90;;;11.50;99.90;;;;;;5004892;28;20462;-70
2022/12/29 08:42:17;;;;;;;1999.90;999.90;;;11.50;99.90;;;;;;5009557;28;20454;-70
2022/12/29 08:44:43;;;;;;;1999.90;999.90;;;11.50;99.90;;;;;;5008576;28;20465;-69
2022/12/29 08:47:11;;;;;;;1999.90;999.90;;;11.50;99.90;;;;;;5009472;28;20480;-69
2022/12/29 08:49:38;;;;;;;1999.90;999.90;;;11.60;99.90;;;;;;5009676;28;20455;-69
2022/12/29 08:52:05;;;;;;;1999.90;999.90;;;11.60;99.90;;;;;;4999346;28;20818;-69
2022/12/29 08:54:32;;;;;;;1999.90;999.90;;;11.60;99.90;;;;;;5007574;28;20450;-69
2022/12/29 08:56:59;;;;;;;1999.90;999.90;;;11.50;99.90;;;;;;5008718;28;20462;-70
2022/12/29 08:59:27;;;;;;;1999.90;999.90;;;11.50;99.90;;;;;;5007530;28;20536;-70
2022/12/29 09:01:54;;;;;;;1999.90;999.90;;;11.60;99.90;;;;;;5012552;28;20437;-70
2022/12/29 09:04:20;;;;;;;1999.90;999.90;;;11.70;99.90;;;;;;5014101;28;20453;-70
2022/12/29 09:06:47;;;;;;;1999.90;999.90;;;11.80;99.90;;;;;;5003784;28;20496;-70
2022/12/29 09:09:14;;;;;;;1999.90;999.90;;;11.80;99.90;;;;;;5002483;28;20450;-70
2022/12/29 09:11:41;;;;;;;1999.90;999.90;;;11.80;99.90;;;;;;5007428;28;20540;-70
2022/12/29 09:14:12;;;;;;;1999.90;999.90;;;11.90;99.90;;;;;;5007564;28;20454;-70
2022/12/29 09:19:25;;;;;;;1999.90;999.90;;;12.10;99.90;;;;;;5013550;28;20591;-70
2022/12/29 09:21:53;;;;;;;1999.90;999.90;;;12.20;99.90;;;;;;5007887;28;20476;-70
2022/12/29 09:24:20;;;;;;;1999.90;999.90;;;12.20;99.90;;;;;;5015563;28;20453;-70
2022/12/29 09:26:53;;;;;;;1999.90;999.90;;;12.30;99.90;;;;;;5027939;28;20484;-69
2022/12/29 09:29:19;;;;;;;1999.90;999.90;;;12.30;99.90;;;;;;5010577;28;20450;-69
2022/12/29 09:31:51;;;;;;;1999.90;999.90;;;12.40;99.90;;;;;;5008072;28;21293;-70
2022/12/29 09:34:18;;;;;;;1999.90;999.90;;;12.50;99.90;;;;;;5007603;28;20458;-69
2022/12/29 09:36:44;;;;;;;1999.90;999.90;;;12.60;99.90;;;;;;5007807;28;20972;-70
2022/12/29 09:39:17;;;;;;;1999.90;999.90;;;12.70;99.90;;;;;;5014527;28;20456;-70
2022/12/29 09:41:54;;;;;;;1999.90;999.90;;;12.70;99.90;;;;;;5027941;28;20449;-70
2022/12/29 09:44:27;;;;;;;1999.90;999.90;;;12.80;99.90;;;;;;5027338;28;20539;-70
2022/12/29 09:46:57;;;;;;;1999.90;999.90;;;12.90;99.90;;;;;;5014331;28;20488;-70
2022/12/29 09:49:30;;;;;;;1999.90;999.90;;;13.00;99.90;;;;;;5007111;28;20465;-68
2022/12/29 09:52:04;;;;;;;1999.90;999.90;;;13.20;99.90;;;;;;5009267;28;20457;-68
2022/12/29 09:54:47;;;;;;;1999.90;999.90;;;13.40;99.90;;;;;;5027138;28;20456;-69
2022/12/29 09:57:21;;;;;;;1999.90;999.90;;;13.40;99.90;;;;;;5027371;28;20475;-69
2022/12/29 09:59:51;;;;;;;1999.90;999.90;;;13.50;99.90;;;;;;5024649;28;20449;-69
2022/12/29 10:02:31;;;;;;;1999.90;999.90;;;13.70;99.90;;;;;;5007528;28;20465;-69
2022/12/29 10:04:58;;;;;;;1999.90;999.90;;;13.80;99.90;;;;;;5021392;28;20452;-69
2022/12/29 10:07:37;;;;;;;1999.90;999.90;;;13.80;99.90;;;;;;5019778;28;20485;-70
2022/12/29 10:10:28;;;;;;;1999.90;999.90;;;13.70;99.90;;;;;;5026509;28;20954;-69
2022/12/29 10:13:05;;;;;;;1999.90;999.90;;;13.60;99.90;;;;;;5027118;28;20443;-69
2022/12/29 10:15:45;;;;;;;1999.90;999.90;;;13.50;99.90;;;;;;5009444;28;20476;-69
2022/12/29 10:18:38;;;;;;;1999.90;999.90;;;13.40;99.90;;;;;;5007081;28;20449;-69
2022/12/29 10:21:09;;;;;;;1999.90;999.90;;;13.30;99.90;;;;;;5007513;28;20446;-69
2022/12/29 10:23:41;;;;;;;1999.90;999.90;;;13.30;99.90;;;;;;5017978;28;20453;-69
2022/12/29 10:26:13;;;;;;;1999.90;999.90;;;13.20;99.90;;;;;;5014990;28;20470;-69
2022/12/29 10:28:44;;;;;;;1999.90;999.90;;;13.30;99.90;;;;;;5023851;28;20481;-69
2022/12/29 10:31:16;;;;;;;1999.90;999.90;;;13.40;99.90;;;;;;5027336;28;20445;-69
2022/12/29 10:33:45;;;;;;;1999.90;999.90;;;13.40;99.90;;;;;;5026805;28;20867;-69
2022/12/29 10:36:18;;;;;;;1999.90;999.90;;;13.40;99.90;;;;;;5027067;28;20477;-69
2022/12/29 10:38:58;;;;;;;1999.90;999.90;;;13.50;99.90;;;;;;5020822;28;21249;-70
2022/12/29 10:41:29;;;;;;;1999.90;999.90;;;13.60;99.90;;;;;;5021107;28;20444;-69
2022/12/29 10:43:58;;;;;;;1999.90;999.90;;;13.70;99.90;;;;;;5026923;28;20448;-69
2022/12/29 10:46:28;;;;;;;1999.90;999.90;;;13.80;99.90;;;;;;5024766;28;20500;-69
2022/12/29 10:48:56;;;;;;;1999.90;999.90;;;13.90;99.90;;;;;;5023612;28;21056;-69
2022/12/29 10:51:25;;;;;;;1999.90;999.90;;;13.90;99.90;;;;;;5026748;28;20448;-69
2022/12/29 10:53:56;;;;;;;1999.90;999.90;;;13.90;99.90;;;;;;5022731;28;21220;-69
2022/12/29 10:56:32;;;;;;;1999.90;999.90;;;14.00;99.90;;;;;;5007183;28;20546;-69
2022/12/29 10:59:04;;;;;;;1999.90;999.90;;;14.10;99.90;;;;;;5021354;28;20990;-69
2022/12/29 11:01:37;;;;;;;1999.90;999.90;;;14.30;99.90;;;;;;5025418;28;20444;-68
2022/12/29 11:04:18;;;;;;;1999.90;999.90;;;14.40;99.90;;;;;;5013075;28;20449;-69
2022/12/29 11:06:44;;;;;;;1999.90;999.90;;;14.40;99.90;;;;;;5029026;28;20464;-69
2022/12/29 11:09:17;;;;;;;1999.90;999.90;;;14.50;99.90;;;;;;5029281;28;21253;-69
2022/12/29 11:11:45;;;;;;;1999.90;999.90;;;14.60;99.90;;;;;;5023581;28;20453;-69
2022/12/29 11:14:14;;;;;;;1999.90;999.90;;;14.60;99.90;;;;;;5009276;28;20450;-68
2022/12/29 11:16:43;;;;;;;1999.90;999.90;;;14.80;99.90;;;;;;5019607;28;20469;-69
2022/12/29 11:19:23;;;;;;;1999.90;999.90;;;14.80;99.90;;;;;;5029550;28;20796;-69
2022/12/29 11:22:02;;;;;;;1999.90;999.90;;;14.90;99.90;;;;;;5020683;28;20454;-69
2022/12/29 11:24:30;;;;;;;1999.90;999.90;;;14.80;99.90;;;;;;5010650;28;20588;-69
2022/12/29 11:27:14;;;;;;;1999.90;999.90;;;14.80;99.90;;;;;;5010265;28;20481;-69
2022/12/29 11:29:43;;;;;;;1999.90;999.90;;;14.70;99.90;;;;;;5010777;28;20450;-68
2022/12/29 11:32:13;;;;;;;1999.90;999.90;;;14.60;99.90;;;;;;5010027;28;20456;-68
2022/12/29 11:34:41;;;;;;;1999.90;999.90;;;14.50;99.90;;;;;;5010015;28;20453;-69
2022/12/29 11:37:12;;;;;;;1999.90;999.90;;;14.50;99.90;;;;;;5012487;28;20477;-69
2022/12/29 11:39:45;;;;;;;1999.90;999.90;;;14.50;99.90;;;;;;5016277;28;20449;-69
2022/12/29 11:42:18;;;;;;;1999.90;999.90;;;14.50;99.90;;;;;;5023307;28;20458;-69
2022/12/29 11:44:47;;;;;;;1999.90;999.90;;;14.50;99.90;;;;;;5010274;28;20872;-69
2022/12/29 11:47:26;;;;;;;1999.90;999.90;;;14.40;99.90;;;;;;5010396;28;20470;-69
2022/12/29 11:49:57;;;;;;;1999.90;999.90;;;14.30;99.90;;;;;;5009675;28;20460;-68
2022/12/29 11:52:26;;;;;;;1999.90;999.90;;;14.30;99.90;;;;;;5027898;28;20820;-69
2022/12/29 11:54:54;;;;;;;1999.90;999.90;;;14.20;99.90;;;;;;5030079;28;20448;-69
2022/12/29 11:57:22;;;;;;;1999.90;999.90;;;14.20;99.90;;;;;;5027963;28;21176;-69
2022/12/29 11:59:51;;;;;;;1999.90;999.90;;;14.10;99.90;;;;;;5026923;28;20442;-69
2022/12/29 12:02:48;;;;;;;1999.90;999.90;;;14.20;99.90;;;;;;5029243;28;20453;-68
2022/12/29 12:05:34;;;;;;;1999.90;999.90;;;14.20;99.90;;;;;;5016804;28;20468;-69
2022/12/29 12:08:09;;;;;;;1999.90;999.90;;;14.20;99.90;;;;;;5029320;28;20492;-69
2022/12/29 12:10:42;;;;;;;1999.90;999.90;;;13.80;99.90;;;;;;5028850;28;20463;-69
2022/12/29 12:13:19;;;;;;;1999.90;999.90;;;13.30;99.90;;;;;;5028743;28;20449;-69
2022/12/29 12:15:52;;;;;;;1999.90;999.90;;;13.00;99.90;;;;;;5013144;28;20536;-69
2022/12/29 12:18:27;;;;;;;1999.90;999.90;;;12.80;99.90;;;;;;5019030;28;20441;-69
2022/12/29 12:21:00;;;;;;;1999.90;999.90;;;12.80;99.90;;;;;;5029402;28;20460;-68
2022/12/29 12:23:37;;;;;;;1999.90;999.90;;;12.80;99.90;;;;;;5028734;28;20478;-69
2022/12/29 12:26:12;;;;;;;1999.90;999.90;;;12.80;99.90;;;;;;5013131;28;20465;-69
2022/12/29 12:28:46;;;;;;;1999.90;999.90;;;12.90;99.90;;;;;;5005429;28;20490;-69
2022/12/29 12:31:19;;;;;;;1999.90;999.90;;;13.00;99.90;;;;;;4990873;28;20484;-69
2022/12/29 12:33:52;;;;;;;1999.90;999.90;;;13.00;99.90;;;;;;5005245;28;20458;-69
2022/12/29 12:36:56;;;;;;;1999.90;999.90;;;13.10;99.90;;;;;;5004810;28;20482;-71
2022/12/29 12:39:28;;;;;;;1999.90;999.90;;;13.20;99.90;;;;;;5005906;28;20445;-70
2022/12/29 12:42:07;;;;;;;1999.90;999.90;;;13.30;99.90;;;;;;5002642;28;20481;-69
2022/12/29 12:44:41;;;;;;;1999.90;999.90;;;13.40;99.90;;;;;;5002626;28;20448;-69
2022/12/29 12:47:38;;;;;;;1999.90;999.90;;;13.40;99.90;;;;;;5004321;28;20589;-68
2022/12/29 12:50:33;;;;;;;1999.90;999.90;;;13.50;99.90;;;;;;5002400;28;20446;-69
2022/12/29 12:53:17;;;;;;;1999.90;999.90;;;13.50;99.90;;;;;;5004591;28;20496;-70